createdAt,value
2023-02-06T00:01:51.971Z,13.07
2023-02-06T00:04:55.409Z,10.65
2023-02-06T00:07:58.996Z,9.75
2023-02-06T00:11:11.550Z,11.30
2023-02-06T00:14:15.058Z,14.50
2023-02-06T00:17:18.461Z,10.77
2023-02-06T00:20:22.004Z,11.18
2023-02-06T00:23:25.376Z,14.17
2023-02-06T00:26:29.355Z,10.18
2023-02-06T00:29:32.906Z,12.20
2023-02-06T00:32:36.786Z,12.73
2023-02-06T00:35:40.194Z,13.05
2023-02-06T00:38:43.917Z,13.27
2023-02-06T00:41:47.363Z,12.52
2023-02-06T00:44:50.869Z,9.30
2023-02-06T00:47:54.340Z,8.57
2023-02-06T00:50:57.836Z,13.88
2023-02-06T00:54:01.244Z,7.93
2023-02-06T00:57:04.906Z,12.60
2023-02-06T01:00:10.388Z,10.90
2023-02-06T01:03:14.365Z,10.20
2023-02-06T01:06:19.235Z,9.73
2023-02-06T01:09:23.465Z,8.75
2023-02-06T01:12:26.933Z,10.55
2023-02-06T01:15:30.404Z,12.85
2023-02-06T01:18:33.899Z,11.73
2023-02-06T01:21:37.860Z,11.65
2023-02-06T01:24:41.307Z,11.63
2023-02-06T01:27:47.584Z,11.25
2023-02-06T01:30:51.492Z,10.88
2023-02-06T01:33:57.052Z,10.40
2023-02-06T01:37:00.539Z,9.48
2023-02-06T01:40:06.146Z,12.23
2023-02-06T01:43:18.858Z,11.52
2023-02-06T01:46:22.764Z,12.27
2023-02-06T01:49:40.030Z,12.40
2023-02-06T01:52:43.520Z,12.82
2023-02-06T01:55:48.248Z,12.30
2023-02-06T01:58:57.416Z,13.15
2023-02-06T02:02:01.059Z,11.65
2023-02-06T02:05:07.496Z,9.93
2023-02-06T02:08:23.306Z,8.07
2023-02-06T02:11:38.803Z,11.55
2023-02-06T02:14:44.706Z,13.90
2023-02-06T02:18:08.759Z,13.60
2023-02-06T02:21:56.734Z,10.77
2023-02-06T02:25:18.192Z,12.38
2023-02-06T02:28:36.392Z,10.10
2023-02-06T02:32:11.729Z,11.30
2023-02-06T02:35:41.040Z,9.85
2023-02-06T02:39:10.082Z,9.67
2023-02-06T02:42:19.128Z,12.20
2023-02-06T02:45:31.669Z,11.13
2023-02-06T02:48:44.312Z,8.65
2023-02-06T02:51:49.390Z,12.48
2023-02-06T02:54:53.300Z,11.30
2023-02-06T02:58:10.793Z,10.75
2023-02-06T03:01:21.046Z,12.80
2023-02-06T03:04:58.725Z,12.75
2023-02-06T03:08:12.354Z,11.40
2023-02-06T03:11:20.019Z,12.90
2023-02-06T03:14:33.468Z,12.48
2023-02-06T03:17:46.623Z,12.05
2023-02-06T03:20:51.628Z,10.80
2023-02-06T03:24:03.364Z,15.10
2023-02-06T03:27:14.902Z,11.85
2023-02-06T03:30:20.059Z,15.18
2023-02-06T03:33:28.240Z,13.93
2023-02-06T03:36:31.733Z,14.98
2023-02-06T03:39:35.833Z,13.98
2023-02-06T03:42:45.715Z,12.73
2023-02-06T03:45:53.580Z,12.43
2023-02-06T03:49:01.514Z,12.05
2023-02-06T03:52:14.025Z,11.30
2023-02-06T03:55:22.104Z,11.65
2023-02-06T03:58:25.837Z,13.02
2023-02-06T04:01:29.658Z,12.10
2023-02-06T04:04:38.391Z,12.03
2023-02-06T04:07:41.924Z,9.75
2023-02-06T04:10:45.654Z,9.25
2023-02-06T04:13:49.176Z,14.47
2023-02-06T04:16:52.769Z,11.82
2023-02-06T04:19:56.235Z,8.90
2023-02-06T04:23:00.164Z,13.65
2023-02-06T04:26:03.680Z,13.80
2023-02-06T04:29:07.264Z,11.10
2023-02-06T04:32:11.354Z,12.32
2023-02-06T04:35:14.808Z,9.73
2023-02-06T04:38:18.635Z,12.57
2023-02-06T04:41:22.136Z,10.88
2023-02-06T04:44:25.960Z,12.80
2023-02-06T04:47:29.400Z,10.02
2023-02-06T04:50:34.439Z,11.20
2023-02-06T04:53:37.905Z,10.68
2023-02-06T04:56:41.337Z,14.32
2023-02-06T04:59:44.894Z,11.27
2023-02-06T05:02:48.418Z,8.55
2023-02-06T05:05:54.652Z,12.30
2023-02-06T05:08:59.765Z,13.15
2023-02-06T05:12:03.366Z,9.45
2023-02-06T05:15:07.808Z,11.93
2023-02-06T05:18:11.287Z,11.50
2023-02-06T05:21:16.342Z,11.02
2023-02-06T05:24:19.923Z,10.32
2023-02-06T05:27:24.728Z,10.63
2023-02-06T05:30:28.508Z,12.00
2023-02-06T05:33:32.304Z,12.27
2023-02-06T05:36:36.060Z,11.37
2023-02-06T05:39:39.515Z,13.70
2023-02-06T05:42:42.944Z,12.57
2023-02-06T05:45:49.265Z,16.50
2023-02-06T05:48:52.709Z,10.45
2023-02-06T05:51:56.323Z,14.90
2023-02-06T05:54:59.784Z,12.65
2023-02-06T05:58:04.442Z,13.27
2023-02-06T06:01:12.471Z,9.82
2023-02-06T06:04:16.769Z,13.50
2023-02-06T06:07:20.205Z,14.57
2023-02-06T06:10:24.271Z,11.05
2023-02-06T06:13:28.841Z,11.90
2023-02-06T06:16:32.868Z,14.10
2023-02-06T06:19:36.334Z,13.25
2023-02-06T06:22:39.836Z,11.10
2023-02-06T06:25:43.901Z,13.75
2023-02-06T06:28:47.409Z,13.10
2023-02-06T06:31:50.984Z,17.95
2023-02-06T06:34:54.433Z,16.02
2023-02-06T06:37:57.900Z,12.67
2023-02-06T06:41:01.414Z,12.45
2023-02-06T06:44:05.852Z,18.48
2023-02-06T06:47:10.959Z,15.30
2023-02-06T06:50:15.111Z,15.27
2023-02-06T06:53:19.548Z,15.35
2023-02-06T06:56:23.298Z,24.48
2023-02-06T06:59:27.292Z,15.45
2023-02-06T07:02:31.023Z,15.02
2023-02-06T07:05:35.471Z,12.82
2023-02-06T07:08:42.153Z,14.17
2023-02-06T07:11:46.189Z,14.57
2023-02-06T07:14:49.771Z,13.75
2023-02-06T07:17:53.225Z,13.48
2023-02-06T07:20:56.758Z,13.73
2023-02-06T07:24:02.452Z,13.48
2023-02-06T07:27:06.116Z,16.58
2023-02-06T07:30:10.424Z,21.33
2023-02-06T07:33:19.243Z,23.13
2023-02-06T07:36:22.678Z,18.33
2023-02-06T07:39:26.716Z,15.13
2023-02-06T07:42:30.221Z,15.07
2023-02-06T07:45:39.671Z,14.68
2023-02-06T07:48:43.398Z,14.90
2023-02-06T07:51:47.227Z,17.67
2023-02-06T07:54:50.823Z,15.98
2023-02-06T07:57:55.344Z,16.02
2023-02-06T08:01:02.960Z,17.55
2023-02-06T08:04:06.926Z,13.93
2023-02-06T08:07:14.978Z,14.95
2023-02-06T08:10:18.640Z,15.63
2023-02-06T08:13:22.631Z,12.90
2023-02-06T08:16:26.127Z,14.95
2023-02-06T08:19:29.907Z,13.00
2023-02-06T08:22:33.403Z,12.35
2023-02-06T08:25:37.374Z,12.73
2023-02-06T08:28:42.458Z,14.93
2023-02-06T08:31:46.029Z,12.23
2023-02-06T08:34:49.546Z,14.20
2023-02-06T08:37:53.096Z,15.13
2023-02-06T08:40:57.568Z,14.98
2023-02-06T08:44:03.140Z,14.43
2023-02-06T08:47:10.346Z,17.77
2023-02-06T08:50:14.268Z,14.40
2023-02-06T08:53:17.879Z,12.55
2023-02-06T09:12:32.617Z,14.27
2023-02-06T09:15:36.905Z,10.60
2023-02-06T09:18:41.045Z,14.90
2023-02-06T09:21:44.598Z,12.98
2023-02-06T09:24:48.064Z,11.48
2023-02-06T09:27:51.575Z,13.32
2023-02-06T09:30:56.192Z,14.98
2023-02-06T09:34:02.792Z,13.47
2023-02-06T09:37:07.475Z,12.18
2023-02-06T09:40:12.929Z,11.20
2023-02-06T09:43:16.660Z,15.07
2023-02-06T09:46:27.122Z,14.27
2023-02-06T09:49:58.907Z,13.77
2023-02-06T09:53:34.788Z,11.15
2023-02-06T09:57:05.592Z,9.23
2023-02-06T10:00:29.892Z,9.32
2023-02-06T10:03:36.522Z,12.95
2023-02-06T10:06:46.096Z,12.63
2023-02-06T10:10:01.621Z,9.63
2023-02-06T10:13:10.986Z,10.20
2023-02-06T10:16:29.363Z,10.02
2023-02-06T10:19:55.243Z,9.13
2023-02-06T10:23:18.997Z,12.70
2023-02-06T10:26:23.609Z,8.82
2023-02-06T10:29:36.461Z,11.60
2023-02-06T10:32:54.447Z,9.30
2023-02-06T10:36:03.439Z,8.93
2023-02-06T10:39:31.303Z,11.52
2023-02-06T10:43:01.335Z,12.43
2023-02-06T10:46:23.071Z,12.98
2023-02-06T10:49:38.815Z,14.03
2023-02-06T10:52:43.118Z,10.68
2023-02-06T10:56:12.745Z,9.68
2023-02-06T10:59:39.243Z,8.93
2023-02-06T11:03:06.593Z,11.13
2023-02-06T11:06:13.858Z,9.77
2023-02-06T11:09:17.693Z,10.25
2023-02-06T11:12:35.549Z,10.50
2023-02-06T11:15:47.163Z,9.50
2023-02-06T11:18:51.930Z,13.23
2023-02-06T11:22:17.264Z,10.15
2023-02-06T11:25:30.461Z,10.50
2023-02-06T11:28:36.761Z,9.82
2023-02-06T11:32:05.201Z,9.82
2023-02-06T11:35:28.383Z,15.18
2023-02-06T11:38:33.084Z,11.00
2023-02-06T11:41:36.641Z,9.45
2023-02-06T11:44:42.745Z,17.50
2023-02-06T11:47:46.379Z,10.57
2023-02-06T11:50:55.129Z,13.70
2023-02-06T11:54:03.789Z,13.32
2023-02-06T11:57:25.854Z,9.25
2023-02-06T12:00:34.129Z,13.30
2023-02-06T12:03:56.369Z,12.90
2023-02-06T12:07:06.113Z,9.65
2023-02-06T12:10:18.381Z,9.80
2023-02-06T12:13:28.568Z,10.70
2023-02-06T12:16:35.752Z,7.67
2023-02-06T12:19:49.615Z,9.73
2023-02-06T12:23:23.832Z,10.00
2023-02-06T12:26:32.160Z,9.05
2023-02-06T12:29:45.296Z,9.23
2023-02-06T12:32:55.512Z,15.63
2023-02-06T12:36:07.920Z,8.20
2023-02-06T12:39:23.135Z,11.95
2023-02-06T12:42:53.984Z,9.97
2023-02-06T12:46:02.443Z,10.40
2023-02-06T12:49:16.689Z,14.27
2023-02-06T12:52:40.501Z,10.70
2023-02-06T12:56:01.187Z,13.40
2023-02-06T12:59:10.704Z,20.63
2023-02-06T13:02:33.117Z,17.58
2023-02-06T13:05:40.777Z,11.70
2023-02-06T13:08:56.139Z,11.32
2023-02-06T13:12:21.152Z,31.08
2023-02-06T13:15:27.472Z,14.75
2023-02-06T13:18:52.771Z,12.20
2023-02-06T13:22:13.189Z,15.85
2023-02-06T13:25:27.082Z,13.80
2023-02-06T13:28:31.289Z,17.50
2023-02-06T13:31:35.617Z,15.33
2023-02-06T13:34:46.753Z,12.65
2023-02-06T13:38:09.447Z,14.30
2023-02-06T13:41:15.989Z,16.67
2023-02-06T13:44:37.387Z,14.83
2023-02-06T13:48:02.348Z,15.30
2023-02-06T13:51:24.707Z,20.50
2023-02-06T14:00:15.507Z,15.30
2023-02-06T14:03:31.526Z,15.82
2023-02-06T14:06:56.891Z,16.48
2023-02-06T14:10:19.212Z,15.57
2023-02-06T14:13:41.600Z,13.13
2023-02-06T14:17:32.361Z,12.38
2023-02-06T14:21:03.718Z,12.77
2023-02-06T14:24:36.025Z,13.35
2023-02-06T14:27:57.922Z,15.50
2023-02-06T14:31:30.819Z,14.75
2023-02-06T14:34:37.129Z,15.03
2023-02-06T14:37:55.650Z,16.23
2023-02-06T14:41:01.999Z,10.80
2023-02-06T14:44:18.536Z,10.65
2023-02-06T14:47:33.490Z,10.25
2023-02-06T14:50:42.944Z,11.40
2023-02-06T14:53:53.859Z,10.80
2023-02-06T14:57:00.115Z,11.73
2023-02-06T15:00:17.050Z,13.50
2023-02-06T15:03:25.914Z,13.82
2023-02-06T15:06:41.413Z,17.13
2023-02-06T15:09:54.913Z,21.83
2023-02-06T15:12:58.793Z,17.80
2023-02-06T15:16:07.858Z,13.23
2023-02-06T15:19:22.664Z,13.60
2023-02-06T15:22:29.966Z,14.20
2023-02-06T15:25:51.571Z,12.27
2023-02-06T15:28:59.848Z,19.03
2023-02-06T15:32:25.639Z,25.08
2023-02-06T15:35:38.866Z,23.38
2023-02-06T15:38:43.434Z,16.42
2023-02-06T15:41:50.152Z,17.00
2023-02-06T15:44:54.444Z,32.15
2023-02-06T15:47:58.953Z,22.63
2023-02-06T15:51:08.634Z,22.77
2023-02-06T15:54:19.443Z,19.95
2023-02-06T15:57:32.169Z,16.50
2023-02-06T16:00:38.043Z,28.27
2023-02-06T16:03:42.293Z,19.48
2023-02-06T16:06:47.043Z,15.30
2023-02-06T16:09:59.567Z,17.17
2023-02-06T16:13:10.886Z,14.00
2023-02-06T16:16:17.429Z,12.82
2023-02-06T16:19:47.558Z,10.63
2023-02-06T16:22:51.582Z,12.67
2023-02-06T16:26:14.525Z,12.32
2023-02-06T16:29:27.490Z,13.98
2023-02-06T16:32:32.586Z,13.17
2023-02-06T16:35:36.002Z,18.13
2023-02-06T16:38:39.922Z,17.15
2023-02-06T16:41:49.034Z,16.98
2023-02-06T16:44:59.482Z,13.40
2023-02-06T16:48:03.182Z,13.57
2023-02-06T16:51:07.062Z,13.80
2023-02-06T16:54:20.583Z,14.70
2023-02-06T16:57:35.413Z,13.50
2023-02-06T17:00:39.116Z,13.48
2023-02-06T17:03:42.954Z,25.73
2023-02-06T17:06:50.791Z,21.30
2023-02-06T17:09:56.894Z,26.42
2023-02-06T17:13:00.573Z,26.27
2023-02-06T17:16:04.476Z,38.78
2023-02-06T17:19:08.107Z,37.47
2023-02-06T17:22:12.480Z,22.23
2023-02-06T17:25:16.076Z,19.83
2023-02-06T17:28:20.631Z,30.98
2023-02-06T17:31:24.568Z,24.10
2023-02-06T17:34:30.234Z,21.03
2023-02-06T17:37:34.025Z,23.13
2023-02-06T17:40:41.035Z,23.17
2023-02-06T17:43:44.855Z,20.27
2023-02-06T17:46:50.082Z,17.65
2023-02-06T17:49:53.636Z,17.58
2023-02-06T17:52:59.120Z,20.83
2023-02-06T17:56:12.984Z,21.83
2023-02-06T17:59:16.656Z,18.52
2023-02-06T18:02:20.157Z,20.27
2023-02-06T18:05:24.201Z,15.17
2023-02-06T18:08:29.450Z,22.95
2023-02-06T18:11:35.828Z,20.35
2023-02-06T18:14:40.598Z,20.05
2023-02-06T18:17:44.365Z,25.77
2023-02-06T18:20:48.679Z,32.72
2023-02-06T18:23:54.461Z,28.33
2023-02-06T18:26:58.230Z,21.40
2023-02-06T18:30:04.448Z,22.30
2023-02-06T18:33:08.526Z,26.05
2023-02-06T18:36:12.218Z,22.77
2023-02-06T18:39:16.425Z,22.70
2023-02-06T18:42:38.854Z,21.58
2023-02-06T18:45:43.829Z,25.48
2023-02-06T18:48:49.117Z,24.77
2023-02-06T18:51:52.627Z,23.10
2023-02-06T18:54:56.205Z,22.92
2023-02-06T18:58:00.708Z,20.57
2023-02-06T19:01:12.946Z,20.75
2023-02-06T19:04:17.051Z,17.85
2023-02-06T19:07:21.249Z,24.53
2023-02-06T19:10:25.965Z,18.20
2023-02-06T19:13:29.662Z,20.38
2023-02-06T19:16:34.396Z,24.20
2023-02-06T19:19:38.164Z,23.17
2023-02-06T19:22:42.057Z,20.48
2023-02-06T19:25:46.134Z,18.58
2023-02-06T19:28:50.179Z,22.33
2023-02-06T19:31:53.879Z,18.73
2023-02-06T19:34:57.985Z,17.02
2023-02-06T19:38:03.621Z,20.47
2023-02-06T19:41:13.259Z,18.05
2023-02-06T19:44:17.993Z,15.68
2023-02-06T19:47:22.290Z,22.92
2023-02-06T19:50:26.050Z,29.30
2023-02-06T19:53:32.922Z,25.98
2023-02-06T19:56:40.175Z,23.42
2023-02-06T19:59:44.087Z,24.03
2023-02-06T20:02:47.872Z,24.17
2023-02-06T20:05:51.740Z,22.45
2023-02-06T20:08:57.370Z,21.47
2023-02-06T20:12:02.828Z,22.85
2023-02-06T20:15:06.962Z,25.92
2023-02-06T20:18:10.696Z,21.55
2023-02-06T20:21:23.280Z,17.60
2023-02-06T20:24:30.208Z,25.17
2023-02-06T20:27:34.195Z,27.05
2023-02-06T20:30:39.801Z,20.93
2023-02-06T20:33:44.216Z,25.15
2023-02-06T20:36:48.451Z,26.52
2023-02-06T20:39:52.308Z,21.77
2023-02-06T20:42:56.148Z,20.67
2023-02-06T20:46:00.147Z,17.17
2023-02-06T20:49:09.315Z,29.38
2023-02-06T20:52:13.158Z,23.45
2023-02-06T20:55:17.005Z,20.60
2023-02-06T20:58:21.043Z,22.00
2023-02-06T21:01:27.094Z,20.77
2023-02-06T21:04:33.460Z,13.60
2023-02-06T21:07:39.050Z,24.90
2023-02-06T21:10:43.230Z,33.93
2023-02-06T21:13:47.099Z,27.25
2023-02-06T21:16:51.300Z,29.92
2023-02-06T21:19:54.808Z,29.92
2023-02-06T21:22:58.305Z,34.22
2023-02-06T21:26:01.814Z,27.70
2023-02-06T21:29:07.801Z,28.95
2023-02-06T21:32:14.232Z,21.37
2023-02-06T21:35:18.033Z,20.42
2023-02-06T21:38:22.567Z,22.52
2023-02-06T21:41:27.092Z,24.87
2023-02-06T21:44:30.623Z,20.73
2023-02-06T21:47:35.846Z,30.83
2023-02-06T21:50:41.300Z,23.40
2023-02-06T21:53:45.926Z,18.92
2023-02-06T21:56:49.511Z,19.25
2023-02-06T21:59:53.114Z,22.25
2023-02-06T22:02:56.717Z,19.00
2023-02-06T22:06:08.834Z,27.90
2023-02-06T22:09:16.491Z,30.45
2023-02-06T22:12:20.125Z,24.73
2023-02-06T22:15:23.928Z,24.60
2023-02-06T22:18:27.445Z,20.65
2023-02-06T22:21:32.811Z,29.23
2023-02-06T22:24:36.286Z,20.42
2023-02-06T22:27:39.769Z,21.13
2023-02-06T22:30:43.318Z,20.52
2023-02-06T22:33:47.523Z,18.50
2023-02-06T22:36:51.358Z,16.95
2023-02-06T22:39:57.675Z,18.15
2023-02-06T22:43:01.221Z,19.40
2023-02-06T22:46:06.439Z,18.30
2023-02-06T22:49:11.127Z,21.05
2023-02-06T22:52:33.194Z,21.80
2023-02-06T22:55:58.742Z,16.92
2023-02-06T22:59:08.506Z,23.30
2023-02-06T23:02:12.259Z,21.60
2023-02-06T23:05:15.827Z,20.70
2023-02-06T23:08:19.454Z,21.35
2023-02-06T23:11:23.262Z,19.17
2023-02-06T23:14:28.487Z,19.47
2023-02-06T23:17:31.903Z,21.45
2023-02-06T23:20:39.580Z,22.90
2023-02-06T23:23:43.807Z,19.10
2023-02-06T23:26:49.895Z,19.48
2023-02-06T23:29:53.320Z,17.05
2023-02-06T23:32:56.798Z,25.45
2023-02-06T23:36:05.812Z,19.97
2023-02-06T23:39:09.349Z,15.65
2023-02-06T23:42:12.865Z,24.60
2023-02-06T23:45:16.580Z,26.43
2023-02-06T23:48:20.053Z,26.58
2023-02-06T23:51:24.334Z,21.05
2023-02-06T23:54:27.876Z,18.20
2023-02-06T23:57:31.366Z,16.23
